sensor_id;sensor_type;location;lat;lon;timestamp;temperature;humidity
49465;DHT22;35358;49.342;8.802;2022-08-19T00:01:40;20.80;99.90
49465;DHT22;35358;49.342;8.802;2022-08-19T00:04:11;20.80;99.90
49465;DHT22;35358;49.342;8.802;2022-08-19T00:06:38;20.80;99.90
49465;DHT22;35358;49.342;8.802;2022-08-19T00:09:06;20.80;99.90
49465;DHT22;35358;49.342;8.802;2022-08-19T00:11:32;20.80;99.90
49465;DHT22;35358;49.342;8.802;2022-08-19T00:14:01;20.80;99.90
49465;DHT22;35358;49.342;8.802;2022-08-19T00:16:27;20.70;99.90
49465;DHT22;35358;49.342;8.802;2022-08-19T00:18:55;20.60;99.90
49465;DHT22;35358;49.342;8.802;2022-08-19T00:21:25;20.60;99.90
49465;DHT22;35358;49.342;8.802;2022-08-19T00:23:55;20.60;99.90
49465;DHT22;35358;49.342;8.802;2022-08-19T00:26:24;20.60;99.90
49465;DHT22;35358;49.342;8.802;2022-08-19T00:28:52;20.60;99.90
49465;DHT22;35358;49.342;8.802;2022-08-19T00:31:17;20.60;99.90
49465;DHT22;35358;49.342;8.802;2022-08-19T00:33:46;20.50;99.90
49465;DHT22;35358;49.342;8.802;2022-08-19T00:36:13;20.50;99.90
49465;DHT22;35358;49.342;8.802;2022-08-19T00:38:39;20.50;99.90
49465;DHT22;35358;49.342;8.802;2022-08-19T00:41:13;20.50;99.90
49465;DHT22;35358;49.342;8.802;2022-08-19T00:43:42;20.50;99.90
49465;DHT22;35358;49.342;8.802;2022-08-19T00:46:08;20.50;99.90
49465;DHT22;35358;49.342;8.802;2022-08-19T00:48:34;20.60;99.90
49465;DHT22;35358;49.342;8.802;2022-08-19T00:51:01;20.50;99.90
49465;DHT22;35358;49.342;8.802;2022-08-19T00:53:32;20.50;99.90
49465;DHT22;35358;49.342;8.802;2022-08-19T00:56:01;20.50;99.90
49465;DHT22;35358;49.342;8.802;2022-08-19T00:58:34;20.60;99.90
49465;DHT22;35358;49.342;8.802;2022-08-19T01:01:01;20.60;99.90
49465;DHT22;35358;49.342;8.802;2022-08-19T01:03:27;20.50;99.90
49465;DHT22;35358;49.342;8.802;2022-08-19T01:05:54;20.50;99.90
49465;DHT22;35358;49.342;8.802;2022-08-19T01:08:20;20.60;99.90
49465;DHT22;35358;49.342;8.802;2022-08-19T01:10:50;20.60;99.90
49465;DHT22;35358;49.342;8.802;2022-08-19T01:13:22;20.60;99.90
49465;DHT22;35358;49.342;8.802;2022-08-19T01:15:57;20.70;99.90
49465;DHT22;35358;49.342;8.802;2022-08-19T01:18:25;20.70;99.90
49465;DHT22;35358;49.342;8.802;2022-08-19T01:20:56;20.60;99.90
49465;DHT22;35358;49.342;8.802;2022-08-19T01:23:23;20.70;99.90
49465;DHT22;35358;49.342;8.802;2022-08-19T01:26:12;20.70;99.90
49465;DHT22;35358;49.342;8.802;2022-08-19T01:28:38;20.70;99.90
49465;DHT22;35358;49.342;8.802;2022-08-19T01:31:05;20.70;99.90
49465;DHT22;35358;49.342;8.802;2022-08-19T01:33:31;20.70;99.90
49465;DHT22;35358;49.342;8.802;2022-08-19T01:36:23;20.70;99.90
49465;DHT22;35358;49.342;8.802;2022-08-19T01:38:50;20.70;99.90
49465;DHT22;35358;49.342;8.802;2022-08-19T01:41:18;20.60;99.90
49465;DHT22;35358;49.342;8.802;2022-08-19T01:43:44;20.70;99.90
49465;DHT22;35358;49.342;8.802;2022-08-19T01:46:13;20.60;99.90
49465;DHT22;35358;49.342;8.802;2022-08-19T01:48:41;20.70;99.90
49465;DHT22;35358;49.342;8.802;2022-08-19T01:51:10;20.70;99.90
49465;DHT22;35358;49.342;8.802;2022-08-19T01:53:37;20.70;99.90
49465;DHT22;35358;49.342;8.802;2022-08-19T01:56:04;20.80;99.90
49465;DHT22;35358;49.342;8.802;2022-08-19T01:58:34;20.80;99.90
49465;DHT22;35358;49.342;8.802;2022-08-19T02:01:02;20.80;99.90
49465;DHT22;35358;49.342;8.802;2022-08-19T02:03:28;20.70;99.90
49465;DHT22;35358;49.342;8.802;2022-08-19T02:05:59;20.80;99.90
49465;DHT22;35358;49.342;8.802;2022-08-19T02:08:28;20.80;99.90
49465;DHT22;35358;49.342;8.802;2022-08-19T02:10:55;20.70;99.90
49465;DHT22;35358;49.342;8.802;2022-08-19T02:13:24;20.70;99.90
49465;DHT22;35358;49.342;8.802;2022-08-19T02:15:50;20.70;99.90
49465;DHT22;35358;49.342;8.802;2022-08-19T02:18:16;20.70;99.90
49465;DHT22;35358;49.342;8.802;2022-08-19T02:20:46;20.70;99.90
49465;DHT22;35358;49.342;8.802;2022-08-19T02:23:20;20.70;99.90
49465;DHT22;35358;49.342;8.802;2022-08-19T02:25:49;20.80;99.90
49465;DHT22;35358;49.342;8.802;2022-08-19T02:28:17;20.70;99.90
49465;DHT22;35358;49.342;8.802;2022-08-19T02:30:42;20.70;99.90
49465;DHT22;35358;49.342;8.802;2022-08-19T02:33:08;20.70;99.90
49465;DHT22;35358;49.342;8.802;2022-08-19T02:35:36;20.60;99.90
49465;DHT22;35358;49.342;8.802;2022-08-19T02:38:01;20.60;99.90
49465;DHT22;35358;49.342;8.802;2022-08-19T02:40:53;20.60;99.90
49465;DHT22;35358;49.342;8.802;2022-08-19T02:43:23;20.60;99.90
49465;DHT22;35358;49.342;8.802;2022-08-19T02:45:52;20.60;99.90
49465;DHT22;35358;49.342;8.802;2022-08-19T02:48:20;20.60;99.90
49465;DHT22;35358;49.342;8.802;2022-08-19T02:50:47;20.60;99.90
49465;DHT22;35358;49.342;8.802;2022-08-19T02:53:18;20.60;99.90
49465;DHT22;35358;49.342;8.802;2022-08-19T02:55:45;20.70;99.90
49465;DHT22;35358;49.342;8.802;2022-08-19T02:58:14;20.60;99.90
49465;DHT22;35358;49.342;8.802;2022-08-19T03:00:51;20.50;99.90
49465;DHT22;35358;49.342;8.802;2022-08-19T03:03:18;20.50;99.90
49465;DHT22;35358;49.342;8.802;2022-08-19T03:05:47;20.50;99.90
49465;DHT22;35358;49.342;8.802;2022-08-19T03:08:15;20.50;99.90
49465;DHT22;35358;49.342;8.802;2022-08-19T03:10:43;20.50;99.90
49465;DHT22;35358;49.342;8.802;2022-08-19T03:13:10;20.50;99.90
49465;DHT22;35358;49.342;8.802;2022-08-19T03:15:39;20.50;99.90
49465;DHT22;35358;49.342;8.802;2022-08-19T03:18:05;20.60;99.90
49465;DHT22;35358;49.342;8.802;2022-08-19T03:20:33;20.60;99.90
49465;DHT22;35358;49.342;8.802;2022-08-19T03:22:59;20.60;99.90
49465;DHT22;35358;49.342;8.802;2022-08-19T03:25:27;20.70;99.90
49465;DHT22;35358;49.342;8.802;2022-08-19T03:27:52;20.70;99.90
49465;DHT22;35358;49.342;8.802;2022-08-19T03:30:22;20.70;99.90
49465;DHT22;35358;49.342;8.802;2022-08-19T03:32:51;20.70;99.90
49465;DHT22;35358;49.342;8.802;2022-08-19T03:35:17;20.70;99.90
49465;DHT22;35358;49.342;8.802;2022-08-19T03:37:42;20.70;99.90
49465;DHT22;35358;49.342;8.802;2022-08-19T03:40:08;20.70;99.90
49465;DHT22;35358;49.342;8.802;2022-08-19T03:42:36;20.60;99.90
49465;DHT22;35358;49.342;8.802;2022-08-19T03:45:09;20.60;99.90
49465;DHT22;35358;49.342;8.802;2022-08-19T03:47:38;20.60;99.90
49465;DHT22;35358;49.342;8.802;2022-08-19T03:50:04;20.60;99.90
49465;DHT22;35358;49.342;8.802;2022-08-19T03:52:30;20.50;99.90
49465;DHT22;35358;49.342;8.802;2022-08-19T03:54:56;20.60;99.90
49465;DHT22;35358;49.342;8.802;2022-08-19T03:57:21;20.60;99.90
49465;DHT22;35358;49.342;8.802;2022-08-19T03:59:47;20.50;99.90
49465;DHT22;35358;49.342;8.802;2022-08-19T04:02:15;20.50;99.90
49465;DHT22;35358;49.342;8.802;2022-08-19T04:04:42;20.40;99.90
49465;DHT22;35358;49.342;8.802;2022-08-19T04:07:09;20.40;99.90
49465;DHT22;35358;49.342;8.802;2022-08-19T04:09:35;20.40;99.90
49465;DHT22;35358;49.342;8.802;2022-08-19T04:12:02;20.40;99.90
49465;DHT22;35358;49.342;8.802;2022-08-19T04:14:30;20.30;99.90
49465;DHT22;35358;49.342;8.802;2022-08-19T04:17:00;20.10;99.90
49465;DHT22;35358;49.342;8.802;2022-08-19T04:19:30;20.00;99.90
49465;DHT22;35358;49.342;8.802;2022-08-19T04:21:58;20.00;99.90
49465;DHT22;35358;49.342;8.802;2022-08-19T04:24:27;20.00;99.90
49465;DHT22;35358;49.342;8.802;2022-08-19T04:26:53;19.90;99.90
49465;DHT22;35358;49.342;8.802;2022-08-19T04:29:22;19.90;99.90
49465;DHT22;35358;49.342;8.802;2022-08-19T04:31:56;19.90;99.90
49465;DHT22;35358;49.342;8.802;2022-08-19T04:34:23;19.80;99.90
49465;DHT22;35358;49.342;8.802;2022-08-19T04:36:50;19.80;99.90
49465;DHT22;35358;49.342;8.802;2022-08-19T04:39:20;19.80;99.90
49465;DHT22;35358;49.342;8.802;2022-08-19T04:41:46;19.70;99.90
49465;DHT22;35358;49.342;8.802;2022-08-19T04:44:33;19.80;99.90
49465;DHT22;35358;49.342;8.802;2022-08-19T04:47:02;19.80;99.90
49465;DHT22;35358;49.342;8.802;2022-08-19T04:49:30;19.90;99.90
49465;DHT22;35358;49.342;8.802;2022-08-19T04:51:56;19.90;99.90
49465;DHT22;35358;49.342;8.802;2022-08-19T04:54:24;20.00;99.90
49465;DHT22;35358;49.342;8.802;2022-08-19T04:56:51;20.00;99.90
49465;DHT22;35358;49.342;8.802;2022-08-19T04:59:21;20.10;99.90
49465;DHT22;35358;49.342;8.802;2022-08-19T05:01:47;20.10;99.90
49465;DHT22;35358;49.342;8.802;2022-08-19T05:04:15;20.10;99.90
49465;DHT22;35358;49.342;8.802;2022-08-19T05:06:47;20.10;99.90
49465;DHT22;35358;49.342;8.802;2022-08-19T05:09:13;20.10;99.90
49465;DHT22;35358;49.342;8.802;2022-08-19T05:11:39;20.00;99.90
49465;DHT22;35358;49.342;8.802;2022-08-19T05:14:07;20.00;99.90
49465;DHT22;35358;49.342;8.802;2022-08-19T05:16:33;20.00;99.90
49465;DHT22;35358;49.342;8.802;2022-08-19T05:19:01;20.10;99.90
49465;DHT22;35358;49.342;8.802;2022-08-19T05:21:45;20.00;99.90
49465;DHT22;35358;49.342;8.802;2022-08-19T05:24:30;20.10;99.90
49465;DHT22;35358;49.342;8.802;2022-08-19T05:27:00;20.10;99.90
49465;DHT22;35358;49.342;8.802;2022-08-19T05:29:33;20.20;99.90
49465;DHT22;35358;49.342;8.802;2022-08-19T05:31:59;20.10;99.90
49465;DHT22;35358;49.342;8.802;2022-08-19T05:34:26;20.10;99.90
49465;DHT22;35358;49.342;8.802;2022-08-19T05:36:59;20.10;99.90
49465;DHT22;35358;49.342;8.802;2022-08-19T05:39:31;20.20;99.90
49465;DHT22;35358;49.342;8.802;2022-08-19T05:42:02;20.20;99.90
49465;DHT22;35358;49.342;8.802;2022-08-19T05:44:31;20.20;99.90
49465;DHT22;35358;49.342;8.802;2022-08-19T05:46:58;20.30;99.90
49465;DHT22;35358;49.342;8.802;2022-08-19T05:49:25;20.40;99.90
49465;DHT22;35358;49.342;8.802;2022-08-19T05:51:54;20.30;99.90
49465;DHT22;35358;49.342;8.802;2022-08-19T05:54:21;20.40;99.90
49465;DHT22;35358;49.342;8.802;2022-08-19T05:56:49;20.50;99.90
49465;DHT22;35358;49.342;8.802;2022-08-19T05:59:19;20.50;99.90
49465;DHT22;35358;49.342;8.802;2022-08-19T06:01:49;20.50;99.90
49465;DHT22;35358;49.342;8.802;2022-08-19T06:04:23;20.50;99.90
49465;DHT22;35358;49.342;8.802;2022-08-19T06:06:52;20.60;99.90
49465;DHT22;35358;49.342;8.802;2022-08-19T06:09:22;20.70;99.90
49465;DHT22;35358;49.342;8.802;2022-08-19T06:11:53;20.70;99.90
49465;DHT22;35358;49.342;8.802;2022-08-19T06:14:28;20.70;99.90
49465;DHT22;35358;49.342;8.802;2022-08-19T06:16:55;20.80;99.90
49465;DHT22;35358;49.342;8.802;2022-08-19T06:19:25;20.80;99.90
49465;DHT22;35358;49.342;8.802;2022-08-19T06:21:53;20.90;99.90
49465;DHT22;35358;49.342;8.802;2022-08-19T06:24:24;20.90;99.90
49465;DHT22;35358;49.342;8.802;2022-08-19T06:26:53;20.90;99.90
49465;DHT22;35358;49.342;8.802;2022-08-19T06:29:22;21.00;99.90
49465;DHT22;35358;49.342;8.802;2022-08-19T06:31:51;21.00;99.90
49465;DHT22;35358;49.342;8.802;2022-08-19T06:34:18;21.00;99.90
49465;DHT22;35358;49.342;8.802;2022-08-19T06:36:48;21.00;99.90
49465;DHT22;35358;49.342;8.802;2022-08-19T06:39:17;21.00;99.90
49465;DHT22;35358;49.342;8.802;2022-08-19T06:41:46;21.00;99.90
49465;DHT22;35358;49.342;8.802;2022-08-19T06:44:12;21.10;99.90
49465;DHT22;35358;49.342;8.802;2022-08-19T06:46:39;21.10;99.90
49465;DHT22;35358;49.342;8.802;2022-08-19T06:49:10;21.20;99.90
49465;DHT22;35358;49.342;8.802;2022-08-19T06:51:40;21.20;99.90
49465;DHT22;35358;49.342;8.802;2022-08-19T06:54:08;21.10;99.90
49465;DHT22;35358;49.342;8.802;2022-08-19T06:56:37;21.20;99.90
49465;DHT22;35358;49.342;8.802;2022-08-19T06:59:13;21.20;99.90
49465;DHT22;35358;49.342;8.802;2022-08-19T07:01:42;21.20;99.90
49465;DHT22;35358;49.342;8.802;2022-08-19T07:04:11;21.20;99.90
49465;DHT22;35358;49.342;8.802;2022-08-19T07:06:37;21.30;99.90
49465;DHT22;35358;49.342;8.802;2022-08-19T07:09:04;21.20;99.90
49465;DHT22;35358;49.342;8.802;2022-08-19T07:11:33;21.30;99.90
49465;DHT22;35358;49.342;8.802;2022-08-19T07:14:00;21.40;99.90
49465;DHT22;35358;49.342;8.802;2022-08-19T07:16:29;21.50;99.90
49465;DHT22;35358;49.342;8.802;2022-08-19T07:18:58;21.50;99.90
49465;DHT22;35358;49.342;8.802;2022-08-19T07:21:27;21.60;99.90
49465;DHT22;35358;49.342;8.802;2022-08-19T07:23:56;21.60;99.90
49465;DHT22;35358;49.342;8.802;2022-08-19T07:26:29;21.60;99.90
49465;DHT22;35358;49.342;8.802;2022-08-19T07:28:58;21.60;99.90
49465;DHT22;35358;49.342;8.802;2022-08-19T07:31:26;21.60;99.90
49465;DHT22;35358;49.342;8.802;2022-08-19T07:33:54;21.70;99.90
49465;DHT22;35358;49.342;8.802;2022-08-19T07:36:27;21.70;99.90
49465;DHT22;35358;49.342;8.802;2022-08-19T07:39:04;21.80;99.90
49465;DHT22;35358;49.342;8.802;2022-08-19T07:41:35;21.80;99.90
49465;DHT22;35358;49.342;8.802;2022-08-19T07:44:04;21.70;99.90
49465;DHT22;35358;49.342;8.802;2022-08-19T07:46:34;21.70;99.90
49465;DHT22;35358;49.342;8.802;2022-08-19T07:49:03;21.70;99.90
49465;DHT22;35358;49.342;8.802;2022-08-19T07:51:31;21.80;99.90
49465;DHT22;35358;49.342;8.802;2022-08-19T07:53:56;21.80;99.90
49465;DHT22;35358;49.342;8.802;2022-08-19T07:56:22;21.90;99.90
49465;DHT22;35358;49.342;8.802;2022-08-19T07:58:49;21.90;99.90
49465;DHT22;35358;49.342;8.802;2022-08-19T08:01:26;22.00;99.90
49465;DHT22;35358;49.342;8.802;2022-08-19T08:03:54;22.00;99.90
49465;DHT22;35358;49.342;8.802;2022-08-19T08:06:41;22.10;99.90
49465;DHT22;35358;49.342;8.802;2022-08-19T08:09:33;22.20;99.90
49465;DHT22;35358;49.342;8.802;2022-08-19T08:12:10;22.40;99.90
49465;DHT22;35358;49.342;8.802;2022-08-19T08:14:47;22.50;99.90
49465;DHT22;35358;49.342;8.802;2022-08-19T08:17:17;22.70;99.90
49465;DHT22;35358;49.342;8.802;2022-08-19T08:19:44;22.70;99.90
49465;DHT22;35358;49.342;8.802;2022-08-19T08:22:11;22.70;99.90
49465;DHT22;35358;49.342;8.802;2022-08-19T08:24:56;22.80;99.90
49465;DHT22;35358;49.342;8.802;2022-08-19T08:27:27;22.70;99.90
49465;DHT22;35358;49.342;8.802;2022-08-19T08:29:57;22.60;99.90
49465;DHT22;35358;49.342;8.802;2022-08-19T08:32:25;22.80;99.90
49465;DHT22;35358;49.342;8.802;2022-08-19T08:34:52;22.80;99.90
49465;DHT22;35358;49.342;8.802;2022-08-19T08:37:20;22.90;99.90
49465;DHT22;35358;49.342;8.802;2022-08-19T08:39:49;23.00;99.90
49465;DHT22;35358;49.342;8.802;2022-08-19T08:42:30;23.00;99.90
49465;DHT22;35358;49.342;8.802;2022-08-19T08:45:06;23.00;99.90
49465;DHT22;35358;49.342;8.802;2022-08-19T08:47:39;23.20;99.90
49465;DHT22;35358;49.342;8.802;2022-08-19T08:50:16;23.30;99.90
49465;DHT22;35358;49.342;8.802;2022-08-19T08:52:46;23.30;99.90
49465;DHT22;35358;49.342;8.802;2022-08-19T08:55:17;23.40;99.90
49465;DHT22;35358;49.342;8.802;2022-08-19T09:00:37;23.50;99.90
49465;DHT22;35358;49.342;8.802;2022-08-19T09:03:09;23.40;99.90
49465;DHT22;35358;49.342;8.802;2022-08-19T09:05:51;23.60;99.90
49465;DHT22;35358;49.342;8.802;2022-08-19T09:11:13;23.90;99.90
49465;DHT22;35358;49.342;8.802;2022-08-19T09:14:32;24.20;99.90
49465;DHT22;35358;49.342;8.802;2022-08-19T09:16:44;24.30;99.90
49465;DHT22;35358;49.342;8.802;2022-08-19T09:19:12;24.00;99.90
49465;DHT22;35358;49.342;8.802;2022-08-19T09:21:38;24.20;99.90
49465;DHT22;35358;49.342;8.802;2022-08-19T09:24:04;24.30;99.90
49465;DHT22;35358;49.342;8.802;2022-08-19T09:26:32;24.30;99.90
49465;DHT22;35358;49.342;8.802;2022-08-19T09:28:59;24.40;99.90
49465;DHT22;35358;49.342;8.802;2022-08-19T09:31:28;24.50;99.90
49465;DHT22;35358;49.342;8.802;2022-08-19T09:33:58;24.30;99.90
49465;DHT22;35358;49.342;8.802;2022-08-19T09:36:26;24.30;99.90
49465;DHT22;35358;49.342;8.802;2022-08-19T09:38:58;24.30;99.90
49465;DHT22;35358;49.342;8.802;2022-08-19T09:41:29;24.50;99.90
49465;DHT22;35358;49.342;8.802;2022-08-19T09:43:56;24.70;99.90
49465;DHT22;35358;49.342;8.802;2022-08-19T09:46:24;24.90;99.90
49465;DHT22;35358;49.342;8.802;2022-08-19T09:48:50;25.00;99.90
49465;DHT22;35358;49.342;8.802;2022-08-19T09:51:19;25.30;99.90
49465;DHT22;35358;49.342;8.802;2022-08-19T09:53:47;25.20;99.90
49465;DHT22;35358;49.342;8.802;2022-08-19T09:56:16;25.20;99.90
49465;DHT22;35358;49.342;8.802;2022-08-19T09:58:42;25.20;99.90
49465;DHT22;35358;49.342;8.802;2022-08-19T10:01:08;25.20;99.90
49465;DHT22;35358;49.342;8.802;2022-08-19T10:03:36;25.10;99.90
49465;DHT22;35358;49.342;8.802;2022-08-19T10:06:04;25.20;99.90
49465;DHT22;35358;49.342;8.802;2022-08-19T10:08:37;25.40;99.90
49465;DHT22;35358;49.342;8.802;2022-08-19T10:11:04;25.80;99.90
49465;DHT22;35358;49.342;8.802;2022-08-19T10:13:31;25.50;99.90
49465;DHT22;35358;49.342;8.802;2022-08-19T10:16:10;25.50;99.90
49465;DHT22;35358;49.342;8.802;2022-08-19T10:18:41;25.30;99.90
49465;DHT22;35358;49.342;8.802;2022-08-19T10:23:46;25.20;99.90
49465;DHT22;35358;49.342;8.802;2022-08-19T10:26:18;25.10;99.90
49465;DHT22;35358;49.342;8.802;2022-08-19T10:28:46;25.10;99.90
49465;DHT22;35358;49.342;8.802;2022-08-19T10:31:21;25.20;99.90
49465;DHT22;35358;49.342;8.802;2022-08-19T10:33:48;25.30;99.90
49465;DHT22;35358;49.342;8.802;2022-08-19T10:36:18;25.40;99.90
49465;DHT22;35358;49.342;8.802;2022-08-19T10:38:45;25.20;99.90
49465;DHT22;35358;49.342;8.802;2022-08-19T10:41:17;25.20;99.90
49465;DHT22;35358;49.342;8.802;2022-08-19T10:43:44;25.30;99.90
49465;DHT22;35358;49.342;8.802;2022-08-19T10:46:12;25.30;99.90
49465;DHT22;35358;49.342;8.802;2022-08-19T10:48:39;25.40;99.90
49465;DHT22;35358;49.342;8.802;2022-08-19T10:51:05;25.60;99.90
49465;DHT22;35358;49.342;8.802;2022-08-19T10:53:49;25.80;99.90
49465;DHT22;35358;49.342;8.802;2022-08-19T10:56:18;25.80;99.90
49465;DHT22;35358;49.342;8.802;2022-08-19T10:59:03;26.00;99.90
49465;DHT22;35358;49.342;8.802;2022-08-19T11:01:33;26.10;99.90
49465;DHT22;35358;49.342;8.802;2022-08-19T11:04:03;25.90;99.90
49465;DHT22;35358;49.342;8.802;2022-08-19T11:06:31;26.10;99.90
49465;DHT22;35358;49.342;8.802;2022-08-19T11:08:58;26.00;99.90
49465;DHT22;35358;49.342;8.802;2022-08-19T11:11:26;25.80;99.90
49465;DHT22;35358;49.342;8.802;2022-08-19T11:13:54;25.80;99.90
49465;DHT22;35358;49.342;8.802;2022-08-19T11:16:23;26.10;99.90
49465;DHT22;35358;49.342;8.802;2022-08-19T11:18:51;26.20;99.90
49465;DHT22;35358;49.342;8.802;2022-08-19T11:21:21;26.30;99.90
49465;DHT22;35358;49.342;8.802;2022-08-19T11:23:51;26.40;99.90
49465;DHT22;35358;49.342;8.802;2022-08-19T11:26:18;26.40;99.90
49465;DHT22;35358;49.342;8.802;2022-08-19T11:28:47;26.40;99.90
49465;DHT22;35358;49.342;8.802;2022-08-19T11:31:18;26.20;99.90
49465;DHT22;35358;49.342;8.802;2022-08-19T11:33:47;26.40;99.90
49465;DHT22;35358;49.342;8.802;2022-08-19T11:36:16;26.20;99.90
49465;DHT22;35358;49.342;8.802;2022-08-19T11:38:45;26.30;99.90
49465;DHT22;35358;49.342;8.802;2022-08-19T11:41:17;26.70;99.90
49465;DHT22;35358;49.342;8.802;2022-08-19T11:43:45;26.50;99.90
49465;DHT22;35358;49.342;8.802;2022-08-19T11:46:13;26.90;99.90
49465;DHT22;35358;49.342;8.802;2022-08-19T11:48:39;26.80;99.90
49465;DHT22;35358;49.342;8.802;2022-08-19T11:51:11;27.00;99.90
49465;DHT22;35358;49.342;8.802;2022-08-19T11:53:39;27.10;99.90
49465;DHT22;35358;49.342;8.802;2022-08-19T11:56:11;27.10;99.90
49465;DHT22;35358;49.342;8.802;2022-08-19T11:58:37;27.30;99.90
49465;DHT22;35358;49.342;8.802;2022-08-19T12:01:07;27.00;99.90
49465;DHT22;35358;49.342;8.802;2022-08-19T12:03:33;26.90;99.90
49465;DHT22;35358;49.342;8.802;2022-08-19T12:06:06;26.90;99.90
49465;DHT22;35358;49.342;8.802;2022-08-19T12:08:32;27.20;99.90
49465;DHT22;35358;49.342;8.802;2022-08-19T12:10:58;27.30;99.90
49465;DHT22;35358;49.342;8.802;2022-08-19T12:13:26;27.20;99.90
49465;DHT22;35358;49.342;8.802;2022-08-19T12:15:52;27.20;99.90
49465;DHT22;35358;49.342;8.802;2022-08-19T12:18:20;27.40;99.90
49465;DHT22;35358;49.342;8.802;2022-08-19T12:20:46;27.40;99.90
49465;DHT22;35358;49.342;8.802;2022-08-19T12:23:15;27.70;99.90
49465;DHT22;35358;49.342;8.802;2022-08-19T12:25:48;27.70;99.90
49465;DHT22;35358;49.342;8.802;2022-08-19T12:28:19;27.50;99.90
49465;DHT22;35358;49.342;8.802;2022-08-19T12:30:47;27.50;99.90
49465;DHT22;35358;49.342;8.802;2022-08-19T12:33:16;27.20;99.90
49465;DHT22;35358;49.342;8.802;2022-08-19T12:35:47;27.20;99.90
49465;DHT22;35358;49.342;8.802;2022-08-19T12:38:16;27.30;99.90
49465;DHT22;35358;49.342;8.802;2022-08-19T12:40:48;27.40;99.90
49465;DHT22;35358;49.342;8.802;2022-08-19T12:43:15;27.60;99.90
49465;DHT22;35358;49.342;8.802;2022-08-19T12:45:41;27.50;99.90
49465;DHT22;35358;49.342;8.802;2022-08-19T12:48:08;27.80;99.90
49465;DHT22;35358;49.342;8.802;2022-08-19T12:50:34;27.90;99.90
49465;DHT22;35358;49.342;8.802;2022-08-19T12:53:02;27.60;99.90
49465;DHT22;35358;49.342;8.802;2022-08-19T12:55:28;27.50;99.90
49465;DHT22;35358;49.342;8.802;2022-08-19T12:57:54;27.30;99.90
49465;DHT22;35358;49.342;8.802;2022-08-19T13:00:22;27.30;99.90
49465;DHT22;35358;49.342;8.802;2022-08-19T13:02:50;27.60;99.90
49465;DHT22;35358;49.342;8.802;2022-08-19T13:05:24;27.90;99.90
49465;DHT22;35358;49.342;8.802;2022-08-19T13:07:52;28.10;99.90
49465;DHT22;35358;49.342;8.802;2022-08-19T13:10:19;27.90;99.90
49465;DHT22;35358;49.342;8.802;2022-08-19T13:12:48;27.70;99.90
49465;DHT22;35358;49.342;8.802;2022-08-19T13:15:22;27.70;99.90
49465;DHT22;35358;49.342;8.802;2022-08-19T13:17:52;27.70;99.90
49465;DHT22;35358;49.342;8.802;2022-08-19T13:20:19;27.60;99.90
49465;DHT22;35358;49.342;8.802;2022-08-19T13:22:48;27.80;99.90
49465;DHT22;35358;49.342;8.802;2022-08-19T13:25:17;27.60;99.90
49465;DHT22;35358;49.342;8.802;2022-08-19T13:27:45;27.90;99.90
49465;DHT22;35358;49.342;8.802;2022-08-19T13:30:15;28.10;99.90
49465;DHT22;35358;49.342;8.802;2022-08-19T13:33:00;28.10;99.90
49465;DHT22;35358;49.342;8.802;2022-08-19T13:35:51;28.00;99.90
49465;DHT22;35358;49.342;8.802;2022-08-19T13:38:21;28.10;99.90
49465;DHT22;35358;49.342;8.802;2022-08-19T13:40:51;28.10;99.90
49465;DHT22;35358;49.342;8.802;2022-08-19T13:43:19;28.30;99.90
49465;DHT22;35358;49.342;8.802;2022-08-19T13:45:48;28.50;99.90
49465;DHT22;35358;49.342;8.802;2022-08-19T13:48:13;28.40;99.90
49465;DHT22;35358;49.342;8.802;2022-08-19T13:50:44;28.40;99.90
49465;DHT22;35358;49.342;8.802;2022-08-19T13:53:12;28.40;99.90
49465;DHT22;35358;49.342;8.802;2022-08-19T13:55:42;28.70;99.90
49465;DHT22;35358;49.342;8.802;2022-08-19T13:58:09;28.80;99.90
49465;DHT22;35358;49.342;8.802;2022-08-19T14:00:40;28.40;99.90
49465;DHT22;35358;49.342;8.802;2022-08-19T14:03:06;28.40;99.90
49465;DHT22;35358;49.342;8.802;2022-08-19T14:05:33;28.00;99.90
49465;DHT22;35358;49.342;8.802;2022-08-19T14:08:02;28.20;99.90
49465;DHT22;35358;49.342;8.802;2022-08-19T14:10:30;28.30;99.90
49465;DHT22;35358;49.342;8.802;2022-08-19T14:12:59;28.10;99.90
49465;DHT22;35358;49.342;8.802;2022-08-19T14:15:26;27.80;99.90
49465;DHT22;35358;49.342;8.802;2022-08-19T14:17:55;28.00;99.90
49465;DHT22;35358;49.342;8.802;2022-08-19T14:20:23;27.80;99.90
49465;DHT22;35358;49.342;8.802;2022-08-19T14:22:49;27.80;99.90
49465;DHT22;35358;49.342;8.802;2022-08-19T14:25:20;27.90;99.90
49465;DHT22;35358;49.342;8.802;2022-08-19T14:27:47;28.00;99.90
49465;DHT22;35358;49.342;8.802;2022-08-19T14:30:15;28.20;99.90
49465;DHT22;35358;49.342;8.802;2022-08-19T14:32:41;28.20;99.90
49465;DHT22;35358;49.342;8.802;2022-08-19T14:35:10;28.30;99.90
49465;DHT22;35358;49.342;8.802;2022-08-19T14:37:38;28.20;99.90
49465;DHT22;35358;49.342;8.802;2022-08-19T14:40:07;28.10;99.90
49465;DHT22;35358;49.342;8.802;2022-08-19T14:42:33;28.40;99.90
49465;DHT22;35358;49.342;8.802;2022-08-19T14:44:59;28.30;99.90
49465;DHT22;35358;49.342;8.802;2022-08-19T14:47:26;28.20;99.90
49465;DHT22;35358;49.342;8.802;2022-08-19T14:49:54;28.20;99.90
49465;DHT22;35358;49.342;8.802;2022-08-19T14:52:22;28.10;99.90
49465;DHT22;35358;49.342;8.802;2022-08-19T14:54:48;28.00;99.90
49465;DHT22;35358;49.342;8.802;2022-08-19T14:57:16;28.00;99.90
49465;DHT22;35358;49.342;8.802;2022-08-19T14:59:45;27.90;99.90
49465;DHT22;35358;49.342;8.802;2022-08-19T15:02:11;28.00;99.90
49465;DHT22;35358;49.342;8.802;2022-08-19T15:04:37;28.10;99.90
49465;DHT22;35358;49.342;8.802;2022-08-19T15:07:04;27.90;99.90
49465;DHT22;35358;49.342;8.802;2022-08-19T15:09:35;27.80;99.90
49465;DHT22;35358;49.342;8.802;2022-08-19T15:12:01;27.80;99.90
49465;DHT22;35358;49.342;8.802;2022-08-19T15:14:27;27.80;99.90
49465;DHT22;35358;49.342;8.802;2022-08-19T15:16:57;27.80;99.90
49465;DHT22;35358;49.342;8.802;2022-08-19T15:19:23;27.80;99.90
49465;DHT22;35358;49.342;8.802;2022-08-19T15:21:51;27.70;99.90
49465;DHT22;35358;49.342;8.802;2022-08-19T15:24:18;27.70;99.90
49465;DHT22;35358;49.342;8.802;2022-08-19T15:26:46;27.70;99.90
49465;DHT22;35358;49.342;8.802;2022-08-19T15:29:14;27.70;99.90
49465;DHT22;35358;49.342;8.802;2022-08-19T15:31:42;27.70;99.90
49465;DHT22;35358;49.342;8.802;2022-08-19T15:34:07;27.60;99.90
49465;DHT22;35358;49.342;8.802;2022-08-19T15:36:34;27.60;99.90
49465;DHT22;35358;49.342;8.802;2022-08-19T15:39:03;27.60;99.90
49465;DHT22;35358;49.342;8.802;2022-08-19T15:41:30;27.60;99.90
49465;DHT22;35358;49.342;8.802;2022-08-19T15:44:07;27.60;99.90
49465;DHT22;35358;49.342;8.802;2022-08-19T15:46:37;27.50;99.90
49465;DHT22;35358;49.342;8.802;2022-08-19T15:49:03;27.50;99.90
49465;DHT22;35358;49.342;8.802;2022-08-19T15:51:33;27.40;99.90